createdAt,value
2023-05-25T00:02:05.194Z,5.03
2023-05-25T00:06:07.358Z,5.47
2023-05-25T00:10:09.522Z,4.95
2023-05-25T00:14:11.357Z,4.95
2023-05-25T00:18:13.233Z,4.82
2023-05-25T00:22:15.014Z,5.35
2023-05-25T00:26:16.885Z,5.12
2023-05-25T00:30:18.752Z,5.28
2023-05-25T00:34:20.861Z,5.25
2023-05-25T00:38:22.950Z,5.30
2023-05-25T00:42:24.827Z,4.65
2023-05-25T00:46:27.808Z,5.37
2023-05-25T00:50:41.819Z,5.30
2023-05-25T00:54:48.147Z,5.75
2023-05-25T00:58:54.115Z,5.53
2023-05-25T01:02:59.357Z,6.07
2023-05-25T01:07:02.840Z,5.43
2023-05-25T01:11:06.527Z,5.43
2023-05-25T01:15:09.953Z,5.68
2023-05-25T01:19:11.799Z,5.85
2023-05-25T01:23:17.536Z,5.50
2023-05-25T01:27:32.408Z,5.05
2023-05-25T01:31:36.248Z,5.47
2023-05-25T01:35:40.058Z,4.78
2023-05-25T01:39:41.895Z,5.05
2023-05-25T01:43:44.169Z,5.25
2023-05-25T01:48:23.716Z,4.78
2023-05-25T01:52:34.119Z,4.80
2023-05-25T01:56:37.435Z,5.43
2023-05-25T02:00:41.503Z,4.85
2023-05-25T02:04:44.037Z,4.78
2023-05-25T02:08:46.155Z,4.82
2023-05-25T02:12:47.903Z,5.47
2023-05-25T02:16:49.727Z,5.93
2023-05-25T02:20:51.719Z,5.97
2023-05-25T02:24:53.513Z,5.55
2023-05-25T02:28:55.443Z,5.57
2023-05-25T02:32:57.295Z,5.37
2023-05-25T02:36:59.185Z,6.15
2023-05-25T02:41:01.041Z,6.10
2023-05-25T02:45:03.021Z,5.80
2023-05-25T02:49:05.774Z,6.53
2023-05-25T02:53:07.573Z,5.62
2023-05-25T02:57:10.209Z,5.10
2023-05-25T03:01:18.587Z,6.00
2023-05-25T03:05:20.863Z,5.82
2023-05-25T03:09:22.665Z,6.70
2023-05-25T03:13:24.471Z,5.78
2023-05-25T03:17:26.306Z,5.40
2023-05-25T03:21:28.164Z,6.50
2023-05-25T03:25:30.034Z,6.62
2023-05-25T03:29:31.799Z,6.07
2023-05-25T03:33:33.912Z,6.80
2023-05-25T03:37:35.800Z,6.45
2023-05-25T03:41:38.240Z,6.37
2023-05-25T03:45:40.053Z,7.57
2023-05-25T03:49:41.928Z,7.15
2023-05-25T03:53:43.797Z,7.25
2023-05-25T03:57:45.680Z,7.30
2023-05-25T04:01:47.483Z,7.87
2023-05-25T04:05:49.986Z,6.97
2023-05-25T04:09:51.847Z,6.90
2023-05-25T04:13:53.597Z,7.25
2023-05-25T04:17:55.434Z,6.78
2023-05-25T04:21:57.448Z,6.72
2023-05-25T04:25:59.898Z,6.82
2023-05-25T04:30:02.467Z,8.40
2023-05-25T04:34:04.485Z,8.82
2023-05-25T04:38:07.063Z,8.13
2023-05-25T04:42:08.885Z,9.07
2023-05-25T04:46:11.738Z,8.77
2023-05-25T04:50:13.905Z,8.60
2023-05-25T04:54:15.812Z,8.63
2023-05-25T04:58:17.670Z,8.98
2023-05-25T05:02:19.523Z,11.05
2023-05-25T05:06:21.667Z,9.48
2023-05-25T05:10:23.717Z,9.52
2023-05-25T05:14:25.497Z,11.35
2023-05-25T05:18:29.003Z,8.20
2023-05-25T05:22:32.884Z,7.93
2023-05-25T05:26:51.891Z,7.87
2023-05-25T05:30:56.464Z,8.35
2023-05-25T05:34:58.202Z,9.45
2023-05-25T05:39:00.891Z,8.65
2023-05-25T05:43:03.000Z,7.85
2023-05-25T05:47:04.947Z,8.20
2023-05-25T05:51:07.199Z,9.63
2023-05-25T05:55:09.539Z,8.88
2023-05-25T05:59:11.698Z,8.48
2023-05-25T06:03:13.507Z,9.57
2023-05-25T06:07:15.434Z,8.40
2023-05-25T06:11:17.247Z,9.13
2023-05-25T06:15:19.038Z,8.50
2023-05-25T06:19:20.775Z,7.65
2023-05-25T06:23:22.574Z,8.50
2023-05-25T06:27:24.466Z,7.70
2023-05-25T06:31:26.432Z,7.40
2023-05-25T06:35:29.484Z,8.35
2023-05-25T06:39:31.248Z,7.25
2023-05-25T06:43:33.252Z,7.15
2023-05-25T06:47:35.674Z,7.15
2023-05-25T06:51:37.705Z,7.70
2023-05-25T06:55:39.542Z,7.40
2023-05-25T06:59:41.344Z,6.70
2023-05-25T07:03:43.410Z,8.00
2023-05-25T07:07:45.266Z,9.25
2023-05-25T07:11:47.050Z,8.48
2023-05-25T07:15:49.129Z,9.55
2023-05-25T07:19:51.015Z,9.20
2023-05-25T07:23:52.783Z,8.70
2023-05-25T07:27:55.215Z,8.88
2023-05-25T07:31:56.968Z,9.57
2023-05-25T07:35:58.828Z,9.93
2023-05-25T07:40:01.363Z,9.38
2023-05-25T07:44:03.062Z,9.13
2023-05-25T07:48:07.104Z,9.02
2023-05-25T07:52:09.169Z,8.68
2023-05-25T07:56:10.982Z,7.70
2023-05-25T08:00:13.325Z,7.93
2023-05-25T08:04:15.213Z,7.03
2023-05-25T08:08:17.131Z,8.25
2023-05-25T08:12:30.601Z,7.87
2023-05-25T08:16:40.115Z,7.90
2023-05-25T08:20:42.120Z,8.25
2023-05-25T08:24:45.127Z,7.37
2023-05-25T08:28:46.860Z,6.90
2023-05-25T08:32:48.657Z,6.43
2023-05-25T08:36:50.445Z,5.55
2023-05-25T08:41:06.486Z,5.87
2023-05-25T08:45:12.447Z,6.00
2023-05-25T08:49:18.710Z,5.35
2023-05-25T08:53:22.460Z,4.80
2023-05-25T08:57:31.820Z,4.40
2023-05-25T09:01:39.163Z,4.47
2023-05-25T09:05:41.150Z,4.60
2023-05-25T09:09:43.483Z,4.00
2023-05-25T09:13:45.674Z,4.72
2023-05-25T09:17:47.866Z,4.18
2023-05-25T09:21:52.909Z,3.58
2023-05-25T09:25:58.750Z,3.92
2023-05-25T09:30:02.249Z,4.10
2023-05-25T09:34:10.704Z,3.40
2023-05-25T09:38:16.623Z,3.80
2023-05-25T09:42:19.003Z,3.85
2023-05-25T09:46:20.962Z,4.25
2023-05-25T09:50:22.911Z,4.15
2023-05-25T09:54:26.472Z,3.53
2023-05-25T09:58:28.468Z,3.72
2023-05-25T10:02:30.976Z,3.37
2023-05-25T10:06:38.528Z,4.35
2023-05-25T10:10:42.280Z,4.30
2023-05-25T10:14:46.209Z,4.32
2023-05-25T10:19:08.323Z,4.10
2023-05-25T10:23:12.768Z,3.50
2023-05-25T10:31:42.207Z,4.05
2023-05-25T10:36:01.616Z,4.57
2023-05-25T10:40:08.647Z,4.53
2023-05-25T10:44:11.296Z,4.12
2023-05-25T10:48:13.837Z,3.40
2023-05-25T10:52:18.733Z,3.85
2023-05-25T10:56:20.694Z,4.07
2023-05-25T11:00:22.514Z,4.10
2023-05-25T11:04:24.334Z,4.72
2023-05-25T11:08:54.246Z,4.15
2023-05-25T11:13:21.710Z,3.58
2023-05-25T11:17:24.503Z,4.00
2023-05-25T11:21:32.220Z,4.00
2023-05-25T11:25:42.244Z,4.68
2023-05-25T11:29:51.002Z,3.75
2023-05-25T11:33:57.381Z,3.50
2023-05-25T11:38:00.419Z,4.63
2023-05-25T11:42:04.294Z,3.62
2023-05-25T11:46:10.141Z,4.50
2023-05-25T11:50:21.373Z,4.30
2023-05-25T11:54:27.960Z,4.47
2023-05-25T11:58:36.106Z,4.55
2023-05-25T12:02:39.135Z,4.95
2023-05-25T12:06:41.230Z,4.47
2023-05-25T12:10:52.150Z,4.43
2023-05-25T12:14:54.047Z,3.87
2023-05-25T12:18:57.262Z,4.03
2023-05-25T12:22:59.305Z,4.87
2023-05-25T12:27:02.348Z,4.12
2023-05-25T12:31:23.656Z,4.22
2023-05-25T12:35:26.233Z,4.78
2023-05-25T12:39:31.095Z,4.70
2023-05-25T12:43:43.789Z,4.10
2023-05-25T12:47:46.010Z,3.78
2023-05-25T12:51:47.808Z,3.67
2023-05-25T12:55:49.603Z,4.12
2023-05-25T12:59:56.459Z,3.47
2023-05-25T13:03:58.198Z,4.30
2023-05-25T13:08:01.616Z,4.28
2023-05-25T13:12:04.238Z,4.12
2023-05-25T13:16:06.543Z,4.45
2023-05-25T13:20:08.805Z,4.07
2023-05-25T13:24:10.636Z,4.28
2023-05-25T13:28:12.352Z,4.60
2023-05-25T13:32:14.252Z,4.60
2023-05-25T13:36:16.052Z,4.37
2023-05-25T13:40:17.838Z,3.60
2023-05-25T13:44:19.664Z,4.50
2023-05-25T13:48:21.665Z,4.30
2023-05-25T13:52:23.440Z,4.43
2023-05-25T13:56:25.377Z,3.90
2023-05-25T14:00:27.580Z,4.15
2023-05-25T14:04:29.408Z,4.30
2023-05-25T14:08:31.340Z,4.62
2023-05-25T14:12:33.173Z,5.25
2023-05-25T14:16:38.538Z,4.35
2023-05-25T14:20:42.546Z,3.87
2023-05-25T14:24:44.780Z,4.32
2023-05-25T14:28:46.516Z,3.50
2023-05-25T14:32:48.518Z,3.70
2023-05-25T14:36:50.242Z,4.60
2023-05-25T14:40:51.988Z,3.78
2023-05-25T14:44:53.685Z,3.60
2023-05-25T14:48:55.639Z,4.15
2023-05-25T14:52:57.407Z,4.47
2023-05-25T14:57:01.828Z,4.18
2023-05-25T15:01:04.906Z,3.60
2023-05-25T15:05:07.133Z,3.75
2023-05-25T15:09:09.422Z,4.28
2023-05-25T15:13:13.178Z,4.57
2023-05-25T15:17:15.236Z,4.10
2023-05-25T15:21:17.275Z,5.10
2023-05-25T15:25:31.417Z,4.25
2023-05-25T15:33:51.945Z,3.75
2023-05-25T15:37:56.125Z,3.30
2023-05-25T15:41:58.163Z,4.30
2023-05-25T15:46:00.314Z,4.70
2023-05-25T15:50:02.121Z,4.22
2023-05-25T15:54:03.893Z,3.97
2023-05-25T15:58:05.820Z,3.85
2023-05-25T16:02:07.875Z,2.87
2023-05-25T16:06:10.196Z,3.37
2023-05-25T16:10:11.956Z,3.87
2023-05-25T16:14:14.046Z,4.87
2023-05-25T16:18:16.662Z,4.07
2023-05-25T16:22:19.358Z,3.90
2023-05-25T16:26:22.425Z,3.80
2023-05-25T16:30:24.277Z,3.45
2023-05-25T16:34:26.409Z,5.00
2023-05-25T16:38:28.261Z,4.35
2023-05-25T16:42:30.068Z,3.80
2023-05-25T16:46:32.835Z,3.67
2023-05-25T16:50:34.675Z,3.53
2023-05-25T16:54:36.429Z,2.95
2023-05-25T16:58:38.224Z,2.92
2023-05-25T17:02:40.089Z,3.60
2023-05-25T17:06:41.943Z,5.78
2023-05-25T17:10:48.937Z,3.53
2023-05-25T17:14:50.738Z,3.10
2023-05-25T17:18:52.527Z,3.55
2023-05-25T17:22:54.374Z,4.15
2023-05-25T17:26:56.173Z,3.90
2023-05-25T17:30:58.835Z,3.15
2023-05-25T17:35:00.762Z,3.20
2023-05-25T17:39:02.704Z,4.15
2023-05-25T17:43:04.478Z,4.32
2023-05-25T17:47:09.178Z,2.90
2023-05-25T17:51:12.843Z,3.17
2023-05-25T17:55:14.631Z,4.10
2023-05-25T17:59:16.562Z,3.67
2023-05-25T18:03:18.430Z,3.83
2023-05-25T18:07:22.130Z,3.78
2023-05-25T18:11:24.476Z,3.83
2023-05-25T18:15:26.248Z,3.75
2023-05-25T18:19:28.010Z,2.80
2023-05-25T18:23:29.777Z,3.12
2023-05-25T18:27:31.625Z,2.85
2023-05-25T18:31:33.601Z,2.92
2023-05-25T18:35:36.139Z,3.00
2023-05-25T18:39:37.886Z,5.82
2023-05-25T18:43:39.667Z,3.35
2023-05-25T18:47:41.649Z,3.15
2023-05-25T18:51:43.723Z,3.28
2023-05-25T18:55:45.858Z,2.78
2023-05-25T18:59:47.859Z,2.85
2023-05-25T19:03:49.724Z,2.80
2023-05-25T19:07:58.889Z,3.17
2023-05-25T19:12:02.873Z,2.85
2023-05-25T19:16:04.964Z,3.37
2023-05-25T19:20:07.449Z,2.95
2023-05-25T19:24:09.984Z,3.12
2023-05-25T19:28:11.810Z,3.60
2023-05-25T19:32:15.843Z,3.15
2023-05-25T19:36:19.032Z,3.58
2023-05-25T19:40:20.931Z,3.47
2023-05-25T19:44:22.751Z,3.28
2023-05-25T19:48:25.311Z,3.65
2023-05-25T19:52:28.461Z,3.30
2023-05-25T19:56:30.448Z,3.60
2023-05-25T20:00:32.621Z,3.97
2023-05-25T20:04:34.825Z,4.12
2023-05-25T20:08:37.922Z,3.97
2023-05-25T20:12:39.916Z,3.87
2023-05-25T20:16:42.023Z,14.05
2023-05-25T20:20:44.014Z,4.90
2023-05-25T20:24:45.869Z,3.67
2023-05-25T20:28:47.621Z,4.07
2023-05-25T20:32:49.583Z,4.10
2023-05-25T20:36:51.685Z,4.07
2023-05-25T20:40:53.595Z,4.43
2023-05-25T20:44:55.347Z,4.10
2023-05-25T20:48:58.199Z,3.87
2023-05-25T20:52:59.992Z,4.22
2023-05-25T20:57:03.960Z,4.70
2023-05-25T21:01:06.141Z,4.93
2023-05-25T21:05:08.257Z,5.37
2023-05-25T21:09:10.034Z,4.57
2023-05-25T21:13:12.010Z,4.22
2023-05-25T21:17:14.868Z,4.50
2023-05-25T21:21:16.818Z,4.80
2023-05-25T21:25:18.974Z,4.22
2023-05-25T21:29:21.470Z,5.37
2023-05-25T21:33:23.290Z,4.70
2023-05-25T21:37:25.329Z,5.00
2023-05-25T21:41:28.208Z,5.20
2023-05-25T21:45:30.038Z,7.72
2023-05-25T21:49:33.216Z,8.23
2023-05-25T21:53:35.016Z,7.45
2023-05-25T21:57:36.892Z,7.10
2023-05-25T22:01:38.723Z,6.30
2023-05-25T22:05:40.549Z,6.30
2023-05-25T22:09:42.296Z,5.40
2023-05-25T22:13:44.060Z,5.22
2023-05-25T22:17:46.432Z,4.80
2023-05-25T22:21:48.300Z,5.28
2023-05-25T22:25:50.023Z,5.78
2023-05-25T22:29:51.870Z,5.87
2023-05-25T22:33:53.792Z,4.93
2023-05-25T22:37:55.725Z,5.82
2023-05-25T22:41:57.533Z,5.90
2023-05-25T22:45:59.468Z,6.07
2023-05-25T22:50:01.274Z,6.50
2023-05-25T22:54:03.092Z,6.05
2023-05-25T22:58:04.865Z,5.80
2023-05-25T23:02:07.445Z,6.65
2023-05-25T23:06:09.417Z,6.68
2023-05-25T23:10:11.551Z,5.07
2023-05-25T23:14:13.378Z,5.70
2023-05-25T23:18:15.283Z,5.90
2023-05-25T23:22:16.960Z,5.85
2023-05-25T23:26:18.800Z,6.18
2023-05-25T23:30:20.750Z,6.37
2023-05-25T23:34:22.858Z,6.00
2023-05-25T23:38:24.701Z,6.53
2023-05-25T23:42:28.164Z,5.85
2023-05-25T23:46:31.724Z,5.60
2023-05-25T23:50:34.931Z,5.70
2023-05-25T23:54:36.935Z,5.40
2023-05-25T23:58:38.700Z,6.12
